createdAt,value
2019-04-04T00:02:19.138Z,4.73
2019-04-04T00:04:47.986Z,4.60
2019-04-04T00:07:16.393Z,5.20
2019-04-04T00:09:45.017Z,4.97
2019-04-04T00:12:13.476Z,4.60
2019-04-04T00:14:43.515Z,4.73
2019-04-04T00:17:12.110Z,5.03
2019-04-04T00:19:40.534Z,4.73
2019-04-04T00:22:08.923Z,4.77
2019-04-04T00:24:39.332Z,6.27
2019-04-04T00:27:07.618Z,5.67
2019-04-04T00:29:36.189Z,5.90
2019-04-04T00:32:04.579Z,6.60
2019-04-04T00:34:32.972Z,6.10
2019-04-04T00:37:04.407Z,7.50
2019-04-04T00:39:31.699Z,7.20
2019-04-04T00:42:00.108Z,6.50
2019-04-04T00:44:28.494Z,7.00
2019-04-04T00:46:56.981Z,7.27
2019-04-04T00:49:25.370Z,7.10
2019-04-04T00:51:53.991Z,6.43
2019-04-04T00:54:22.430Z,6.97
2019-04-04T00:56:50.936Z,5.90
2019-04-04T00:59:22.642Z,6.43
2019-04-04T01:01:49.813Z,6.50
2019-04-04T01:04:18.200Z,6.47
2019-04-04T01:06:46.742Z,6.83
2019-04-04T01:09:15.140Z,6.87
2019-04-04T01:11:43.576Z,7.37
2019-04-04T01:14:11.959Z,8.43
2019-04-04T01:16:40.363Z,8.23
2019-04-04T01:19:09.978Z,8.30
2019-04-04T01:21:38.841Z,8.27
2019-04-04T01:24:07.295Z,8.60
2019-04-04T01:26:35.942Z,8.00
2019-04-04T01:29:05.834Z,8.73
2019-04-04T01:31:34.476Z,9.10
2019-04-04T01:34:04.614Z,8.60
2019-04-04T01:36:33.015Z,9.30
2019-04-04T01:39:01.807Z,8.80
2019-04-04T01:41:30.224Z,8.90
2019-04-04T01:44:04.967Z,10.17
2019-04-04T01:46:28.835Z,9.63
2019-04-04T01:49:16.486Z,9.87
2019-04-04T01:51:45.129Z,10.00
2019-04-04T01:54:13.566Z,9.60
2019-04-04T01:56:42.292Z,9.07
2019-04-04T01:59:12.296Z,10.50
2019-04-04T02:01:40.805Z,10.50
2019-04-04T02:04:09.443Z,10.23
2019-04-04T02:06:37.944Z,10.33
2019-04-04T02:09:07.674Z,11.13
2019-04-04T02:11:37.641Z,11.33
2019-04-04T02:14:06.432Z,11.30
2019-04-04T02:16:34.893Z,11.50
2019-04-04T02:19:03.373Z,11.20
2019-04-04T02:21:31.817Z,11.60
2019-04-04T02:24:01.638Z,10.90
2019-04-04T02:26:30.391Z,11.30
2019-04-04T02:28:58.867Z,11.37
2019-04-04T02:31:28.998Z,11.30
2019-04-04T02:33:57.385Z,11.70
2019-04-04T02:36:25.781Z,11.23
2019-04-04T02:39:08.766Z,10.27
2019-04-04T02:41:37.765Z,10.40
2019-04-04T02:44:06.514Z,10.47
2019-04-04T02:46:34.923Z,11.03
2019-04-04T02:49:03.890Z,10.33
2019-04-04T02:51:32.282Z,11.00
2019-04-04T02:54:00.695Z,10.93
2019-04-04T02:56:29.517Z,11.57
2019-04-04T02:58:57.986Z,11.00
2019-04-04T03:01:26.473Z,11.10
2019-04-04T03:03:54.952Z,11.33
2019-04-04T03:06:24.474Z,11.80
2019-04-04T03:08:53.542Z,11.47
2019-04-04T03:11:22.955Z,11.33
2019-04-04T03:13:51.546Z,11.07
2019-04-04T03:16:21.614Z,10.90
2019-04-04T03:18:50.203Z,11.63
2019-04-04T03:21:22.233Z,11.47
2019-04-04T03:23:49.047Z,10.93
2019-04-04T03:28:35.211Z,11.97
2019-04-04T03:31:04.164Z,13.10
2019-04-04T03:33:32.985Z,13.80
2019-04-04T03:36:01.461Z,14.53
2019-04-04T03:38:29.908Z,14.73
2019-04-04T03:40:58.801Z,15.47
2019-04-04T03:43:27.355Z,14.77
2019-04-04T03:46:00.359Z,16.35
2019-04-04T03:48:25.881Z,16.43
2019-04-04T03:50:57.181Z,17.10
2019-04-04T03:53:24.442Z,15.97
2019-04-04T03:55:53.054Z,15.83
2019-04-04T03:58:21.450Z,21.23
2019-04-04T04:00:49.913Z,17.13
2019-04-04T04:03:22.221Z,16.40
2019-04-04T04:05:48.426Z,17.63
2019-04-04T04:08:20.978Z,17.70
2019-04-04T04:10:46.991Z,16.20
2019-04-04T04:13:17.342Z,17.13
2019-04-04T04:15:45.591Z,17.07
2019-04-04T04:18:14.172Z,17.00
2019-04-04T04:20:42.664Z,17.77
2019-04-04T04:23:11.242Z,18.43
2019-04-04T04:25:41.316Z,18.27
2019-04-04T04:28:09.782Z,18.67
2019-04-04T04:30:40.424Z,18.27
2019-04-04T04:33:08.410Z,18.73
2019-04-04T04:35:40.816Z,18.37
2019-04-04T04:38:07.081Z,19.83
2019-04-04T04:40:35.540Z,18.70
2019-04-04T04:43:04.016Z,19.10
2019-04-04T04:45:32.406Z,19.73
2019-04-04T04:48:00.813Z,20.27
2019-04-04T04:50:29.432Z,18.97
2019-04-04T04:52:57.827Z,19.30
2019-04-04T04:55:27.236Z,16.83
2019-04-04T04:57:56.787Z,20.07
2019-04-04T05:00:27.668Z,21.27
2019-04-04T05:02:55.757Z,20.83
2019-04-04T05:05:24.203Z,22.77
2019-04-04T05:07:54.843Z,19.07
2019-04-04T05:10:22.806Z,20.03
2019-04-04T05:12:53.043Z,19.97
2019-04-04T05:15:21.518Z,21.00
2019-04-04T05:17:49.937Z,20.57
2019-04-04T05:20:18.404Z,18.97
2019-04-04T05:22:46.974Z,19.77
2019-04-04T05:25:15.435Z,20.47
2019-04-04T05:27:43.830Z,23.00
2019-04-04T05:30:15.922Z,20.77
2019-04-04T05:32:42.530Z,21.17
2019-04-04T05:35:11.024Z,19.40
2019-04-04T05:37:39.396Z,20.33
2019-04-04T05:40:08.818Z,18.97
2019-04-04T05:42:37.206Z,19.50
2019-04-04T05:45:07.755Z,20.90
2019-04-04T05:47:36.547Z,17.33
2019-04-04T05:50:06.348Z,18.30
2019-04-04T05:52:34.755Z,19.90
2019-04-04T05:55:03.764Z,18.63
2019-04-04T05:57:32.140Z,19.63
2019-04-04T06:00:00.567Z,17.33
2019-04-04T06:02:29.058Z,19.77
2019-04-04T06:04:57.609Z,20.27
2019-04-04T06:07:26.022Z,18.57
2019-04-04T06:09:54.703Z,19.17
2019-04-04T06:12:25.126Z,19.17
2019-04-04T06:14:53.356Z,19.20
2019-04-04T06:17:21.759Z,18.43
2019-04-04T06:19:50.527Z,18.33
2019-04-04T06:22:19.071Z,17.97
2019-04-04T06:24:52.013Z,17.47
2019-04-04T06:27:19.214Z,15.10
2019-04-04T06:29:48.302Z,14.10
2019-04-04T06:32:16.718Z,13.43
2019-04-04T06:34:45.300Z,14.13
2019-04-04T06:37:13.806Z,15.10
2019-04-04T06:39:42.367Z,15.80
2019-04-04T06:42:11.382Z,16.37
2019-04-04T06:44:39.951Z,17.73
2019-04-04T06:47:08.492Z,19.77
2019-04-04T06:49:36.960Z,19.70
2019-04-04T06:52:05.406Z,19.80
2019-04-04T06:54:33.806Z,20.33
2019-04-04T06:57:04.023Z,21.23
2019-04-04T06:59:33.304Z,20.30
2019-04-04T07:02:05.082Z,20.50
2019-04-04T07:04:35.744Z,21.00
2019-04-04T07:07:02.666Z,19.90
2019-04-04T07:09:31.246Z,20.53
2019-04-04T07:11:59.655Z,21.07
2019-04-04T07:14:30.208Z,19.77
2019-04-04T07:16:58.385Z,23.20
2019-04-04T07:19:26.926Z,19.73
2019-04-04T07:21:55.446Z,24.10
2019-04-04T07:24:23.892Z,20.50
2019-04-04T07:26:52.317Z,22.30
2019-04-04T07:29:20.774Z,21.83
2019-04-04T07:31:49.217Z,21.20
2019-04-04T07:34:17.649Z,24.23
2019-04-04T07:36:46.037Z,22.57
2019-04-04T07:39:14.472Z,23.20
2019-04-04T07:41:44.943Z,23.60
2019-04-04T07:44:13.164Z,22.57
2019-04-04T07:46:45.368Z,23.60
2019-04-04T07:49:11.809Z,23.33
2019-04-04T07:51:40.470Z,20.20
2019-04-04T07:54:09.056Z,21.50
2019-04-04T07:56:37.648Z,21.43
2019-04-04T07:59:06.050Z,19.30
2019-04-04T08:01:34.519Z,19.23
2019-04-04T08:04:03.032Z,21.10
2019-04-04T08:06:31.471Z,18.77
2019-04-04T08:08:59.977Z,19.07
2019-04-04T08:11:28.389Z,19.63
2019-04-04T08:13:56.819Z,20.47
2019-04-04T08:16:25.219Z,20.63
2019-04-04T08:18:53.718Z,20.77
2019-04-04T08:21:22.165Z,23.20
2019-04-04T08:23:50.857Z,23.80
2019-04-04T08:26:19.327Z,24.33
2019-04-04T08:28:47.747Z,24.63
2019-04-04T08:31:16.315Z,24.03
2019-04-04T08:33:44.737Z,24.73
2019-04-04T08:36:13.360Z,24.20
2019-04-04T08:38:41.775Z,23.20
2019-04-04T08:41:10.438Z,25.33
2019-04-04T08:43:38.852Z,24.63
2019-04-04T08:46:07.329Z,26.97
2019-04-04T08:48:35.755Z,26.20
2019-04-04T08:51:04.267Z,24.10
2019-04-04T08:53:39.862Z,24.13
2019-04-04T08:56:02.791Z,25.13
2019-04-04T08:58:31.186Z,23.70
2019-04-04T09:00:59.671Z,23.07
2019-04-04T09:03:28.091Z,23.13
2019-04-04T09:05:56.598Z,23.57
2019-04-04T09:08:25.203Z,20.80
2019-04-04T09:10:53.665Z,21.90
2019-04-04T09:13:22.145Z,19.97
2019-04-04T09:15:50.569Z,22.10
2019-04-04T09:18:19.000Z,19.97
2019-04-04T09:20:47.460Z,18.80
2019-04-04T09:23:15.919Z,17.07
2019-04-04T09:25:44.802Z,18.30
2019-04-04T09:28:13.201Z,18.63
2019-04-04T09:30:41.830Z,19.57
2019-04-04T09:33:10.234Z,21.93
2019-04-04T09:35:38.954Z,19.77
2019-04-04T09:38:07.367Z,18.77
2019-04-04T09:40:35.990Z,17.37
2019-04-04T09:43:04.531Z,17.87
2019-04-04T09:45:33.092Z,19.57
2019-04-04T09:48:01.511Z,17.00
2019-04-04T09:50:29.984Z,17.50
2019-04-04T09:52:58.384Z,18.57
2019-04-04T09:55:27.051Z,19.43
2019-04-04T09:57:55.542Z,19.73
2019-04-04T10:00:24.357Z,19.77
2019-04-04T10:02:53.078Z,17.23
2019-04-04T10:05:21.552Z,19.17
2019-04-04T10:07:50.209Z,18.40
2019-04-04T10:10:18.950Z,17.90
2019-04-04T10:12:47.393Z,18.30
2019-04-04T10:15:17.237Z,17.13
2019-04-04T10:17:49.112Z,17.50
2019-04-04T10:20:16.617Z,14.70
2019-04-04T10:22:45.092Z,15.10
2019-04-04T10:25:13.644Z,14.03
2019-04-04T10:27:42.187Z,12.70
2019-04-04T10:30:12.114Z,12.77
2019-04-04T10:32:40.531Z,12.80
2019-04-04T10:35:09.222Z,12.00
2019-04-04T10:37:37.659Z,12.90
2019-04-04T10:40:07.377Z,13.53
2019-04-04T10:42:36.105Z,12.40
2019-04-04T10:45:06.754Z,11.33
2019-04-04T10:47:35.207Z,11.73
2019-04-04T10:50:05.455Z,11.27
2019-04-04T10:52:33.916Z,11.90
2019-04-04T10:55:02.611Z,12.40
2019-04-04T10:57:31.101Z,12.53
2019-04-04T10:59:59.518Z,14.70
2019-04-04T11:02:28.040Z,14.83
2019-04-04T11:04:56.438Z,11.33
2019-04-04T11:07:25.118Z,11.77
2019-04-04T11:09:53.601Z,11.50
2019-04-04T11:12:22.008Z,11.63
2019-04-04T11:14:50.452Z,11.57
2019-04-04T11:17:18.827Z,13.63
2019-04-04T11:19:47.244Z,14.30
2019-04-04T11:22:15.642Z,13.73
2019-04-04T11:24:44.118Z,15.33
2019-04-04T11:27:12.763Z,17.10
2019-04-04T11:29:41.182Z,16.97
2019-04-04T11:32:09.658Z,15.83
2019-04-04T11:34:38.226Z,15.80
2019-04-04T11:37:06.665Z,14.83
2019-04-04T11:39:35.073Z,14.67
2019-04-04T11:42:03.672Z,18.07
2019-04-04T11:44:32.172Z,14.63
2019-04-04T11:47:00.741Z,13.77
2019-04-04T11:49:29.234Z,11.73
2019-04-04T11:51:57.899Z,12.73
2019-04-04T11:54:26.420Z,11.70
2019-04-04T11:56:54.969Z,12.00
2019-04-04T11:59:23.406Z,10.77
2019-04-04T12:01:52.793Z,11.23
2019-04-04T12:04:21.210Z,11.00
2019-04-04T12:06:49.656Z,11.17
2019-04-04T12:09:18.140Z,11.93
2019-04-04T12:11:46.558Z,11.83
2019-04-04T12:14:15.286Z,10.77
2019-04-04T12:16:43.680Z,9.90
2019-04-04T12:19:12.170Z,9.50
2019-04-04T12:21:40.694Z,10.20
2019-04-04T12:24:09.239Z,10.07
2019-04-04T12:26:37.668Z,10.47
2019-04-04T12:29:06.069Z,11.33
2019-04-04T12:31:34.518Z,10.40
2019-04-04T12:34:02.930Z,9.20
2019-04-04T12:36:31.607Z,10.03
2019-04-04T12:39:00.003Z,9.83
2019-04-04T12:41:28.599Z,11.63
2019-04-04T12:43:57.115Z,10.10
2019-04-04T12:46:25.533Z,10.27
2019-04-04T12:48:53.945Z,10.00
2019-04-04T12:51:22.403Z,9.70
2019-04-04T12:53:51.069Z,8.03
2019-04-04T12:56:19.625Z,9.57
2019-04-04T12:58:48.048Z,8.83
2019-04-04T13:01:16.449Z,10.30
2019-04-04T13:03:44.862Z,8.33
2019-04-04T13:06:13.334Z,7.07
2019-04-04T13:08:42.153Z,7.80
2019-04-04T13:11:10.532Z,7.10
2019-04-04T13:13:39.033Z,7.33
2019-04-04T13:16:07.423Z,6.27
2019-04-04T13:18:35.864Z,6.87
2019-04-04T13:21:04.352Z,6.50
2019-04-04T13:23:32.818Z,7.13
2019-04-04T13:26:01.225Z,7.00
2019-04-04T13:28:29.724Z,6.87
2019-04-04T13:30:58.193Z,6.90
2019-04-04T13:33:26.632Z,6.77
2019-04-04T13:35:55.180Z,5.43
2019-04-04T13:38:23.650Z,5.97
2019-04-04T13:40:52.049Z,6.30
2019-04-04T13:43:22.553Z,5.73
2019-04-04T13:45:50.583Z,6.43
2019-04-04T13:48:19.071Z,5.30
2019-04-04T13:50:47.606Z,4.87
2019-04-04T13:53:16.044Z,3.50
2019-04-04T13:55:44.449Z,3.17
2019-04-04T13:58:13.436Z,2.77
2019-04-04T14:00:41.931Z,3.50
2019-04-04T14:03:10.338Z,2.53
2019-04-04T14:05:38.900Z,2.77
2019-04-04T14:08:07.450Z,2.23
2019-04-04T14:10:35.903Z,1.60
2019-04-04T14:13:04.758Z,1.70
2019-04-04T14:15:33.314Z,2.07
2019-04-04T14:18:03.431Z,1.60
2019-04-04T14:20:32.027Z,1.90
2019-04-04T14:23:00.426Z,0.93
2019-04-04T14:25:29.543Z,0.90
2019-04-04T14:27:58.696Z,1.50
2019-04-04T14:30:27.459Z,1.07
2019-04-04T14:32:55.898Z,1.17
2019-04-04T14:35:24.343Z,0.93
2019-04-04T14:37:54.608Z,1.70
2019-04-04T14:40:23.155Z,1.60
2019-04-04T14:42:51.602Z,1.13
2019-04-04T14:45:20.080Z,2.27
2019-04-04T14:47:48.552Z,2.57
2019-04-04T14:50:17.125Z,1.00
2019-04-04T14:52:45.499Z,1.10
2019-04-04T14:55:14.147Z,1.40
2019-04-04T14:57:42.723Z,3.33
2019-04-04T15:00:15.654Z,11.23
2019-04-04T15:02:43.188Z,1.07
2019-04-04T15:05:11.783Z,1.03
2019-04-04T15:07:40.779Z,1.43
2019-04-04T15:10:09.504Z,1.30
2019-04-04T15:12:37.924Z,1.60
2019-04-04T15:15:07.703Z,2.43
2019-04-04T15:17:36.254Z,2.70
2019-04-04T15:20:05.906Z,2.90
2019-04-04T15:22:34.405Z,2.70
2019-04-04T15:25:02.881Z,4.47
2019-04-04T15:27:31.296Z,5.80
2019-04-04T15:29:59.802Z,3.03
2019-04-04T15:32:28.208Z,6.33
2019-04-04T15:34:56.690Z,5.70
2019-04-04T15:37:25.258Z,5.70
2019-04-04T15:39:53.798Z,2.93
2019-04-04T15:42:22.221Z,10.97
2019-04-04T15:44:50.655Z,3.77
2019-04-04T15:47:19.099Z,2.40
2019-04-04T15:49:47.573Z,2.40
2019-04-04T15:52:15.984Z,3.00
2019-04-04T15:54:44.399Z,5.07
2019-04-04T15:57:12.775Z,4.83
2019-04-04T15:59:41.201Z,2.77
2019-04-04T16:02:09.601Z,4.73
2019-04-04T16:04:38.023Z,3.23
2019-04-04T16:07:07.157Z,2.30
2019-04-04T16:09:35.611Z,1.90
2019-04-04T16:12:04.297Z,1.70
2019-04-04T16:14:32.713Z,2.30
2019-04-04T16:17:01.145Z,2.47
2019-04-04T16:19:29.660Z,2.20
2019-04-04T16:21:58.359Z,2.47
2019-04-04T16:24:26.743Z,2.10
2019-04-04T16:26:55.230Z,1.90
2019-04-04T16:29:23.711Z,2.53
2019-04-04T16:31:52.094Z,2.67
2019-04-04T16:34:20.525Z,3.50
2019-04-04T16:36:49.134Z,14.00
2019-04-04T16:39:17.576Z,18.87
2019-04-04T16:41:46.107Z,13.50
2019-04-04T16:44:14.551Z,9.13
2019-04-04T16:46:43.279Z,6.03
2019-04-04T16:49:11.713Z,7.53
2019-04-04T16:51:40.199Z,9.37
2019-04-04T16:54:09.078Z,4.53
2019-04-04T16:56:37.471Z,4.43
2019-04-04T16:59:06.127Z,6.73
2019-04-04T17:01:34.557Z,11.40
2019-04-04T17:04:03.537Z,16.47
2019-04-04T17:06:32.209Z,8.10
2019-04-04T17:09:00.696Z,5.77
2019-04-04T17:11:29.172Z,5.57
2019-04-04T17:13:57.832Z,5.40
2019-04-04T17:16:26.509Z,5.20
2019-04-04T17:18:54.967Z,5.30
2019-04-04T17:21:23.548Z,6.12
2019-04-04T17:23:52.084Z,4.93
2019-04-04T17:26:20.552Z,6.43
2019-04-04T17:28:49.123Z,6.50
2019-04-04T17:31:17.984Z,8.33
2019-04-04T17:33:46.490Z,7.70
2019-04-04T17:36:14.893Z,5.83
2019-04-04T17:38:43.876Z,6.93
2019-04-04T17:41:12.384Z,7.00
2019-04-04T17:43:40.777Z,6.30
2019-04-04T17:46:09.316Z,6.53
2019-04-04T17:48:38.015Z,6.73
2019-04-04T17:51:06.735Z,6.87
2019-04-04T17:53:35.460Z,7.27
2019-04-04T17:56:05.208Z,7.67
2019-04-04T17:58:33.537Z,9.50
2019-04-04T18:01:02.020Z,8.00
2019-04-04T18:03:30.447Z,7.80
2019-04-04T18:05:58.848Z,7.27
2019-04-04T18:08:27.444Z,7.30
2019-04-04T18:10:55.961Z,8.10
2019-04-04T18:13:24.398Z,8.60
2019-04-04T18:15:52.928Z,13.65
2019-04-04T18:18:21.329Z,10.07
2019-04-04T18:20:49.809Z,8.63
2019-04-04T18:23:18.379Z,8.03
2019-04-04T18:25:46.784Z,8.17
2019-04-04T18:28:15.226Z,9.00
2019-04-04T18:30:43.624Z,8.80
2019-04-04T18:33:12.129Z,9.50
2019-04-04T18:35:40.800Z,9.43
2019-04-04T18:38:09.282Z,10.13
2019-04-04T18:40:37.680Z,10.17
2019-04-04T18:43:06.362Z,9.50
2019-04-04T18:45:34.913Z,9.10
2019-04-04T18:48:03.592Z,10.07
2019-04-04T18:50:32.118Z,10.30
2019-04-04T18:53:00.602Z,11.07
2019-04-04T18:55:29.199Z,10.87
2019-04-04T18:57:57.713Z,11.37
2019-04-04T19:00:26.212Z,10.97
2019-04-04T19:02:54.831Z,10.97
2019-04-04T19:05:23.563Z,10.73
2019-04-04T19:07:52.063Z,11.23
2019-04-04T19:10:20.631Z,11.37
2019-04-04T19:12:49.250Z,11.33
2019-04-04T19:15:18.132Z,11.50
2019-04-04T19:17:56.453Z,10.98
2019-04-04T19:20:24.938Z,12.23
2019-04-04T19:22:53.691Z,11.90
2019-04-04T19:25:22.551Z,12.00
2019-04-04T19:27:50.981Z,12.03
2019-04-04T19:30:20.016Z,11.90
2019-04-04T19:32:48.630Z,11.33
2019-04-04T19:35:17.512Z,11.23
2019-04-04T19:37:45.995Z,13.30
2019-04-04T19:40:15.484Z,13.10
2019-04-04T19:42:43.974Z,13.80
2019-04-04T19:45:12.936Z,13.70
2019-04-04T19:47:41.613Z,14.13
2019-04-04T19:50:13.846Z,12.43
2019-04-04T19:52:42.406Z,12.90
2019-04-04T19:55:11.302Z,13.00
2019-04-04T19:57:39.849Z,13.17
2019-04-04T20:03:44.863Z,16.87
2019-04-04T20:06:13.595Z,15.03
2019-04-04T20:08:42.014Z,16.03
2019-04-04T20:11:10.462Z,15.00
2019-04-04T20:13:38.865Z,14.27
2019-04-04T20:16:07.380Z,14.47
2019-04-04T20:18:35.780Z,14.67
2019-04-04T20:21:04.427Z,15.63
2019-04-04T20:23:32.827Z,15.03
2019-04-04T20:26:01.406Z,15.67
2019-04-04T20:28:29.907Z,16.27
2019-04-04T20:30:58.585Z,15.60
2019-04-04T20:33:26.991Z,14.30
2019-04-04T20:35:55.548Z,16.13
2019-04-04T20:38:24.008Z,15.17
2019-04-04T20:40:52.414Z,15.40
2019-04-04T20:43:21.064Z,15.50
2019-04-04T20:45:49.544Z,17.20
2019-04-04T20:48:18.110Z,17.67
2019-04-04T20:50:46.530Z,15.30
2019-04-04T20:53:15.020Z,15.27
2019-04-04T20:55:47.256Z,14.60
2019-04-04T20:58:15.769Z,16.53
2019-04-04T21:00:44.239Z,15.67
2019-04-04T21:03:12.707Z,15.27
2019-04-04T21:05:41.302Z,14.90
2019-04-04T21:08:09.879Z,14.53
